createdAt,value
2023-02-02T00:00:21.345Z,4.80
2023-02-02T00:05:15.480Z,4.80
2023-02-02T00:10:08.555Z,4.17
2023-02-02T00:15:01.225Z,4.47
2023-02-02T00:19:53.846Z,4.80
2023-02-02T00:24:47.964Z,4.73
2023-02-02T00:29:40.901Z,4.20
2023-02-02T00:34:33.612Z,3.70
2023-02-02T00:39:27.074Z,4.20
2023-02-02T00:44:39.536Z,4.57
2023-02-02T00:49:32.176Z,4.83
2023-02-02T00:54:24.744Z,5.20
2023-02-02T00:59:17.419Z,4.43
2023-02-02T01:04:12.604Z,4.90
2023-02-02T01:09:05.931Z,3.87
2023-02-02T01:13:58.602Z,3.80
2023-02-02T01:18:51.689Z,4.60
2023-02-02T01:23:45.642Z,4.77
2023-02-02T01:28:38.539Z,4.10
2023-02-02T01:33:31.166Z,4.43
2023-02-02T01:38:24.437Z,4.87
2023-02-02T01:43:23.212Z,4.87
2023-02-02T01:48:16.119Z,5.60
2023-02-02T01:53:09.131Z,4.23
2023-02-02T01:58:03.983Z,4.80
2023-02-02T02:02:59.470Z,4.83
2023-02-02T02:07:53.015Z,5.00
2023-02-02T02:12:45.743Z,4.57
2023-02-02T02:17:47.349Z,4.93
2023-02-02T02:23:08.029Z,5.00
2023-02-02T02:28:13.100Z,5.60
2023-02-02T02:33:09.966Z,4.30
2023-02-02T02:38:05.527Z,4.50
2023-02-02T02:42:59.852Z,4.73
2023-02-02T02:47:53.493Z,4.10
2023-02-02T02:52:48.986Z,4.17
2023-02-02T02:57:54.819Z,3.87
2023-02-02T03:02:50.863Z,4.50
2023-02-02T03:07:44.318Z,3.97
2023-02-02T03:12:45.774Z,4.10
2023-02-02T03:17:38.433Z,4.33
2023-02-02T03:22:31.071Z,4.10
2023-02-02T03:27:23.579Z,3.57
2023-02-02T03:32:17.548Z,4.00
2023-02-02T03:37:10.164Z,4.00
2023-02-02T03:42:02.877Z,3.87
2023-02-02T03:46:55.784Z,3.97
2023-02-02T03:51:49.751Z,4.43
2023-02-02T03:56:42.375Z,4.40
2023-02-02T04:01:35.045Z,4.20
2023-02-02T04:06:27.843Z,4.13
2023-02-02T04:11:21.811Z,4.20
2023-02-02T04:16:14.443Z,5.00
2023-02-02T04:21:08.544Z,4.57
2023-02-02T04:26:01.565Z,4.97
2023-02-02T04:30:56.160Z,3.50
2023-02-02T04:35:48.749Z,4.80
2023-02-02T04:40:41.535Z,4.10
2023-02-02T04:45:34.349Z,4.47
2023-02-02T04:50:28.476Z,4.53
2023-02-02T04:55:21.096Z,4.43
2023-02-02T05:00:14.358Z,4.80
2023-02-02T05:05:07.627Z,5.20
2023-02-02T05:10:02.334Z,5.00
2023-02-02T05:14:59.679Z,5.20
2023-02-02T05:19:52.764Z,4.23
2023-02-02T05:24:50.887Z,5.10
2023-02-02T05:29:50.528Z,4.73
2023-02-02T05:34:44.129Z,5.50
2023-02-02T05:39:40.494Z,5.00
2023-02-02T05:44:33.300Z,5.80
2023-02-02T05:49:27.329Z,5.10
2023-02-02T05:54:20.578Z,5.47
2023-02-02T05:59:13.288Z,5.30
2023-02-02T06:04:05.958Z,5.60
2023-02-02T06:09:00.029Z,4.90
2023-02-02T06:13:52.675Z,5.67
2023-02-02T06:18:45.790Z,5.97
2023-02-02T06:23:43.401Z,5.90
2023-02-02T06:28:37.350Z,6.10
2023-02-02T06:33:29.917Z,6.47
2023-02-02T06:38:22.506Z,5.90
2023-02-02T06:43:16.509Z,6.73
2023-02-02T06:48:10.993Z,6.57
2023-02-02T06:53:03.771Z,6.43
2023-02-02T06:57:57.703Z,5.80
2023-02-02T07:02:50.861Z,5.70
2023-02-02T07:07:45.169Z,5.80
2023-02-02T07:12:37.803Z,6.27
2023-02-02T07:17:30.511Z,6.07
2023-02-02T07:22:23.157Z,5.97
2023-02-02T07:27:17.184Z,5.47
2023-02-02T07:32:09.838Z,6.53
2023-02-02T07:37:02.519Z,6.50
2023-02-02T07:41:55.196Z,5.37
2023-02-02T07:46:57.585Z,5.80
2023-02-02T07:51:50.333Z,5.43
2023-02-02T07:56:43.116Z,4.83
2023-02-02T08:01:35.788Z,5.30
2023-02-02T08:06:31.507Z,5.00
2023-02-02T08:11:25.010Z,5.20
2023-02-02T08:16:18.145Z,4.90
2023-02-02T08:21:13.689Z,4.80
2023-02-02T08:26:09.103Z,4.87
2023-02-02T08:31:04.763Z,4.50
2023-02-02T08:35:57.977Z,4.53
2023-02-02T08:40:51.504Z,5.33
2023-02-02T08:46:02.185Z,5.87
2023-02-02T08:50:58.625Z,5.00
2023-02-02T08:55:59.000Z,5.93
2023-02-02T09:00:53.264Z,6.33
2023-02-02T09:05:46.658Z,6.57
2023-02-02T09:10:39.683Z,6.80
2023-02-02T09:15:32.600Z,5.27
2023-02-02T09:20:26.942Z,5.60
2023-02-02T09:25:19.648Z,4.50
2023-02-02T09:30:12.997Z,5.93
2023-02-02T09:35:05.899Z,5.73
2023-02-02T09:39:59.999Z,5.40
2023-02-02T09:44:58.085Z,5.00
2023-02-02T09:49:54.960Z,5.73
2023-02-02T09:54:48.965Z,5.97
2023-02-02T09:59:44.056Z,6.10
2023-02-02T10:04:38.069Z,7.33
2023-02-02T10:09:34.944Z,5.83
2023-02-02T10:14:30.408Z,6.00
2023-02-02T10:19:29.092Z,5.90
2023-02-02T10:24:23.045Z,5.00
2023-02-02T10:29:17.628Z,5.07
2023-02-02T10:34:16.674Z,5.03
2023-02-02T10:39:17.372Z,4.90
2023-02-02T10:44:21.225Z,6.27
2023-02-02T10:49:20.613Z,5.20
2023-02-02T10:54:26.803Z,5.20
2023-02-02T10:59:22.805Z,5.00
2023-02-02T11:04:33.168Z,5.67
2023-02-02T11:09:29.531Z,4.93
2023-02-02T11:14:25.891Z,5.20
2023-02-02T11:19:23.501Z,5.13
2023-02-02T11:24:22.183Z,4.50
2023-02-02T11:29:20.563Z,4.60
2023-02-02T11:34:20.487Z,5.33
2023-02-02T11:39:16.915Z,4.93
2023-02-02T11:44:14.053Z,5.50
2023-02-02T11:49:13.819Z,6.77
2023-02-02T11:54:07.895Z,4.63
2023-02-02T11:59:03.744Z,5.13
2023-02-02T12:03:57.276Z,5.00
2023-02-02T12:08:53.903Z,5.40
2023-02-02T12:13:59.210Z,6.03
2023-02-02T12:19:01.859Z,5.37
2023-02-02T12:24:16.311Z,5.43
2023-02-02T12:29:16.434Z,4.73
2023-02-02T12:34:11.996Z,5.60
2023-02-02T12:39:10.126Z,4.33
2023-02-02T12:44:08.223Z,4.50
2023-02-02T12:49:08.103Z,5.90
2023-02-02T12:54:34.531Z,4.43
2023-02-02T12:59:28.816Z,4.50
2023-02-02T13:04:31.453Z,3.70
2023-02-02T13:09:28.995Z,3.97
2023-02-02T13:14:26.273Z,4.80
2023-02-02T13:19:23.958Z,3.50
2023-02-02T13:24:21.854Z,3.40
2023-02-02T13:29:21.165Z,3.90
2023-02-02T13:34:19.795Z,5.57
2023-02-02T13:39:19.980Z,6.10
2023-02-02T13:44:16.240Z,5.80
2023-02-02T13:49:14.195Z,5.40
2023-02-02T13:54:27.420Z,5.10
2023-02-02T13:59:36.923Z,5.57
2023-02-02T14:04:30.858Z,5.50
2023-02-02T14:09:29.185Z,4.97
2023-02-02T14:14:35.745Z,5.50
2023-02-02T14:20:01.847Z,4.73
2023-02-02T14:24:56.114Z,5.33
2023-02-02T14:29:59.262Z,4.90
2023-02-02T14:34:53.780Z,5.37
2023-02-02T14:39:51.380Z,5.10
2023-02-02T14:45:02.870Z,5.17
2023-02-02T14:49:58.868Z,4.90
2023-02-02T14:54:51.498Z,5.70
2023-02-02T14:59:46.513Z,6.07
2023-02-02T15:04:39.333Z,5.10
2023-02-02T15:09:41.272Z,5.17
2023-02-02T15:14:35.463Z,5.60
2023-02-02T15:19:31.331Z,5.90
2023-02-02T15:24:26.936Z,6.03
2023-02-02T15:29:25.487Z,6.53
2023-02-02T15:34:20.859Z,7.40
2023-02-02T15:39:18.594Z,5.43
2023-02-02T15:44:22.898Z,4.60
2023-02-02T15:49:32.680Z,5.10
2023-02-02T15:54:26.433Z,6.00
2023-02-02T15:59:20.980Z,7.30
2023-02-02T16:04:18.488Z,6.23
2023-02-02T16:09:15.352Z,5.80
2023-02-02T16:14:10.428Z,5.53
2023-02-02T16:19:04.125Z,4.13
2023-02-02T16:23:58.370Z,3.20
2023-02-02T16:28:51.211Z,4.57
2023-02-02T16:33:45.294Z,4.40
2023-02-02T16:38:39.521Z,5.27
2023-02-02T16:43:33.947Z,4.67
2023-02-02T16:48:28.867Z,3.63
2023-02-02T16:53:23.147Z,2.73
2023-02-02T16:58:16.844Z,2.67
2023-02-02T17:03:12.808Z,3.27
2023-02-02T17:08:07.914Z,3.00
2023-02-02T17:13:00.908Z,2.80
2023-02-02T17:17:53.529Z,1.87
2023-02-02T17:22:48.417Z,2.80
2023-02-02T17:27:41.203Z,2.00
2023-02-02T17:32:33.879Z,2.07
2023-02-02T17:37:26.536Z,2.40
2023-02-02T17:42:23.677Z,3.60
2023-02-02T17:47:16.433Z,5.60
2023-02-02T17:52:10.799Z,6.20
2023-02-02T17:57:03.565Z,6.47
2023-02-02T18:01:57.922Z,5.60
2023-02-02T18:06:50.965Z,5.10
2023-02-02T18:11:45.606Z,7.00
2023-02-02T18:16:38.305Z,5.10
2023-02-02T18:21:33.079Z,5.30
2023-02-02T18:26:27.087Z,5.73
2023-02-02T18:31:21.019Z,6.70
2023-02-02T18:36:14.774Z,8.87
2023-02-02T18:41:09.177Z,11.63
2023-02-02T18:46:03.160Z,9.33
2023-02-02T18:50:55.910Z,6.90
2023-02-02T18:55:48.547Z,4.53
2023-02-02T19:00:42.637Z,4.53
2023-02-02T19:05:52.791Z,4.60
2023-02-02T19:10:45.494Z,5.30
2023-02-02T19:15:39.264Z,3.50
2023-02-02T19:20:33.747Z,3.53
2023-02-02T19:25:26.639Z,4.17
2023-02-02T19:30:22.261Z,2.63
2023-02-02T19:35:19.766Z,3.50
2023-02-02T19:40:18.938Z,5.97
2023-02-02T19:45:19.016Z,3.70
2023-02-02T19:50:16.301Z,5.30
2023-02-02T19:55:18.341Z,6.10
2023-02-02T20:00:16.302Z,4.50
2023-02-02T20:05:15.943Z,6.23
2023-02-02T20:10:13.633Z,4.87
2023-02-02T20:15:21.055Z,3.97
2023-02-02T20:20:21.910Z,3.10
2023-02-02T20:25:15.513Z,2.80
2023-02-02T20:30:20.973Z,3.00
2023-02-02T20:35:22.990Z,3.00
2023-02-02T20:40:23.161Z,3.17
2023-02-02T20:45:17.251Z,3.13
2023-02-02T20:50:12.170Z,2.80
2023-02-02T20:55:06.156Z,3.10
2023-02-02T20:59:59.700Z,2.80
2023-02-02T21:04:52.394Z,3.40
2023-02-02T21:09:46.393Z,2.70
2023-02-02T21:14:39.036Z,4.20
2023-02-02T21:19:31.654Z,2.77
2023-02-02T21:24:24.514Z,2.30
2023-02-02T21:29:18.567Z,4.20
2023-02-02T21:34:11.139Z,3.40
2023-02-02T21:39:12.121Z,3.80
2023-02-02T21:44:10.437Z,3.43
2023-02-02T21:49:04.653Z,4.13
2023-02-02T21:53:58.193Z,4.23
2023-02-02T21:58:50.793Z,4.00
2023-02-02T22:03:46.648Z,3.90
2023-02-02T22:08:40.776Z,4.17
2023-02-02T22:13:34.559Z,4.50
2023-02-02T22:18:27.826Z,4.23
2023-02-02T22:23:21.099Z,4.00
2023-02-02T22:28:20.776Z,5.00
2023-02-02T22:33:14.038Z,5.63
2023-02-02T22:38:06.763Z,5.37
2023-02-02T22:43:00.202Z,4.70
2023-02-02T22:47:54.401Z,4.90
2023-02-02T22:52:47.042Z,5.50
2023-02-02T22:57:39.940Z,4.77
2023-02-02T23:02:32.753Z,5.50
2023-02-02T23:07:26.669Z,5.40
2023-02-02T23:12:19.392Z,4.90
2023-02-02T23:17:12.028Z,4.33
2023-02-02T23:22:04.696Z,5.40
2023-02-02T23:26:58.673Z,5.40
2023-02-02T23:31:51.345Z,5.80
2023-02-02T23:36:43.994Z,5.10
2023-02-02T23:41:36.599Z,5.10
2023-02-02T23:46:30.745Z,5.40
2023-02-02T23:51:24.088Z,4.70
2023-02-02T23:56:16.649Z,5.40
